createdAt,value
2022-10-01T00:00:38.405Z,1.73
2022-10-01T00:03:08.568Z,1.67
2022-10-01T00:05:38.702Z,2.00
2022-10-01T00:08:11.487Z,2.67
2022-10-01T00:10:44.732Z,1.30
2022-10-01T00:13:15.039Z,1.75
2022-10-01T00:15:45.174Z,1.85
2022-10-01T00:18:15.443Z,1.98
2022-10-01T00:20:46.376Z,2.17
2022-10-01T00:23:19.930Z,2.08
2022-10-01T00:25:52.335Z,2.15
2022-10-01T00:28:22.619Z,1.80
2022-10-01T00:30:52.760Z,2.13
2022-10-01T00:33:23.145Z,1.83
2022-10-01T00:35:57.149Z,1.67
2022-10-01T00:38:29.994Z,1.60
2022-10-01T00:41:00.218Z,2.80
2022-10-01T00:43:33.019Z,1.95
2022-10-01T00:46:07.689Z,2.38
2022-10-01T00:48:44.671Z,1.92
2022-10-01T00:51:15.420Z,1.60
2022-10-01T00:53:49.064Z,1.58
2022-10-01T00:56:19.372Z,1.40
2022-10-01T00:58:54.297Z,2.83
2022-10-01T01:01:24.855Z,1.92
2022-10-01T01:03:55.183Z,2.58
2022-10-01T01:06:25.324Z,2.42
2022-10-01T01:08:59.534Z,1.92
2022-10-01T01:11:41.636Z,2.42
2022-10-01T01:14:22.199Z,1.42
2022-10-01T01:16:58.850Z,1.55
2022-10-01T01:19:46.819Z,1.90
2022-10-01T01:22:18.328Z,1.48
2022-10-01T01:24:59.313Z,1.40
2022-10-01T01:27:39.361Z,2.20
2022-10-01T01:30:15.349Z,3.42
2022-10-01T01:32:51.882Z,2.42
2022-10-01T01:35:32.254Z,2.30
2022-10-01T01:38:06.646Z,1.45
2022-10-01T01:40:39.522Z,2.22
2022-10-01T01:43:17.615Z,1.92
2022-10-01T01:45:55.255Z,2.28
2022-10-01T01:48:26.858Z,2.58
2022-10-01T01:51:06.042Z,2.47
2022-10-01T01:53:36.285Z,2.28
2022-10-01T01:56:08.328Z,2.70
2022-10-01T01:58:39.362Z,2.55
2022-10-01T02:01:41.821Z,2.13
2022-10-01T02:04:20.776Z,2.72
2022-10-01T02:07:18.019Z,2.90
2022-10-01T02:09:56.066Z,1.65
2022-10-01T02:12:40.765Z,1.38
2022-10-01T02:15:18.317Z,1.77
2022-10-01T02:17:59.517Z,2.20
2022-10-01T02:20:36.256Z,2.38
2022-10-01T02:23:10.611Z,1.63
2022-10-01T02:25:46.301Z,2.22
2022-10-01T02:28:20.110Z,1.67
2022-10-01T02:30:52.431Z,2.20
2022-10-01T02:33:29.549Z,1.85
2022-10-01T02:36:03.209Z,1.38
2022-10-01T02:38:36.731Z,2.05
2022-10-01T02:41:11.741Z,1.33
2022-10-01T02:43:48.047Z,1.55
2022-10-01T02:46:27.949Z,1.45
2022-10-01T02:49:03.006Z,1.88
2022-10-01T02:51:41.242Z,1.52
2022-10-01T02:54:18.933Z,1.58
2022-10-01T02:57:02.653Z,1.33
2022-10-01T02:59:32.744Z,1.13
2022-10-01T03:02:03.162Z,2.28
2022-10-01T03:04:35.918Z,1.38
2022-10-01T03:07:06.285Z,1.75
2022-10-01T03:09:37.930Z,2.38
2022-10-01T03:12:08.703Z,1.65
2022-10-01T03:14:39.446Z,1.13
2022-10-01T03:17:10.176Z,1.52
2022-10-01T03:19:43.135Z,2.20
2022-10-01T03:22:18.335Z,1.42
2022-10-01T03:24:48.472Z,1.08
2022-10-01T03:27:18.709Z,1.58
2022-10-01T03:29:49.279Z,2.20
2022-10-01T03:32:20.610Z,1.70
2022-10-01T03:34:53.321Z,1.33
2022-10-01T03:37:23.633Z,1.85
2022-10-01T03:39:53.843Z,1.73
2022-10-01T03:42:23.996Z,0.93
2022-10-01T03:44:54.118Z,1.55
2022-10-01T03:47:26.297Z,1.20
2022-10-01T03:49:58.908Z,2.00
2022-10-01T03:52:29.147Z,1.40
2022-10-01T03:55:00.813Z,1.45
2022-10-01T03:57:30.985Z,1.90
2022-10-01T04:00:01.269Z,1.73
2022-10-01T04:02:31.716Z,1.80
2022-10-01T04:05:05.234Z,1.83
2022-10-01T04:07:35.429Z,3.28
2022-10-01T04:10:05.799Z,1.52
2022-10-01T04:12:36.096Z,1.73
2022-10-01T04:15:06.812Z,2.10
2022-10-01T04:17:37.010Z,1.98
2022-10-01T04:20:11.448Z,1.38
2022-10-01T04:22:43.717Z,1.35
2022-10-01T04:25:15.073Z,1.80
2022-10-01T04:27:58.026Z,1.27
2022-10-01T04:30:30.004Z,2.95
2022-10-01T04:33:00.572Z,1.55
2022-10-01T04:35:33.803Z,1.00
2022-10-01T04:38:07.904Z,2.20
2022-10-01T04:40:39.580Z,2.55
2022-10-01T04:43:11.459Z,1.40
2022-10-01T04:45:42.069Z,1.63
2022-10-01T04:48:12.425Z,1.55
2022-10-01T04:50:45.142Z,1.70
2022-10-01T04:53:15.340Z,1.67
2022-10-01T04:55:46.768Z,1.13
2022-10-01T04:58:17.210Z,1.88
2022-10-01T05:00:48.988Z,1.80
2022-10-01T05:03:20.335Z,1.70
2022-10-01T05:05:53.093Z,1.98
2022-10-01T05:08:23.522Z,1.50
2022-10-01T05:10:53.862Z,1.67
2022-10-01T05:13:29.438Z,1.10
2022-10-01T05:15:59.847Z,1.83
2022-10-01T05:18:30.477Z,1.98
2022-10-01T05:21:07.892Z,1.85
2022-10-01T05:23:38.220Z,1.33
2022-10-01T05:26:08.967Z,1.10
2022-10-01T05:28:44.756Z,0.82
2022-10-01T05:31:16.241Z,1.65
2022-10-01T05:33:46.487Z,1.67
2022-10-01T05:36:19.581Z,1.33
2022-10-01T05:38:52.564Z,1.73
2022-10-01T05:41:22.928Z,1.23
2022-10-01T05:43:53.284Z,1.65
2022-10-01T05:46:23.524Z,1.00
2022-10-01T05:48:53.997Z,1.50
2022-10-01T05:51:26.871Z,1.70
2022-10-01T05:53:59.712Z,2.30
2022-10-01T05:56:30.248Z,2.05
2022-10-01T05:59:00.768Z,1.75
2022-10-01T06:01:32.745Z,1.08
2022-10-01T06:04:04.097Z,1.20
2022-10-01T06:06:37.172Z,1.15
2022-10-01T06:09:07.938Z,0.90
2022-10-01T06:11:39.826Z,1.73
2022-10-01T06:14:10.417Z,1.90
2022-10-01T06:16:40.925Z,1.83
2022-10-01T06:19:11.430Z,1.48
2022-10-01T06:21:44.308Z,1.20
2022-10-01T06:24:14.763Z,2.17
2022-10-01T06:26:45.378Z,0.90
2022-10-01T06:29:15.990Z,1.75
2022-10-01T06:31:46.512Z,1.20
2022-10-01T06:34:17.054Z,2.58
2022-10-01T06:36:50.025Z,1.35
2022-10-01T06:39:20.478Z,0.90
2022-10-01T06:41:51.514Z,1.05
2022-10-01T06:44:21.923Z,2.08
2022-10-01T06:46:54.158Z,0.93
2022-10-01T06:49:24.664Z,2.05
2022-10-01T06:52:10.144Z,1.58
2022-10-01T06:54:40.772Z,1.10
2022-10-01T06:57:11.033Z,1.55
2022-10-01T06:59:41.524Z,1.25
2022-10-01T07:02:27.641Z,1.48
2022-10-01T07:05:01.855Z,1.38
2022-10-01T07:07:36.634Z,1.35
2022-10-01T07:12:37.873Z,1.13
2022-10-01T07:15:09.426Z,0.85
2022-10-01T07:17:46.935Z,0.93
2022-10-01T07:20:17.942Z,0.70
2022-10-01T07:22:51.979Z,0.88
2022-10-01T07:25:22.482Z,0.75
2022-10-01T07:27:52.872Z,1.10
2022-10-01T07:30:24.206Z,0.77
2022-10-01T07:32:54.754Z,1.52
2022-10-01T07:35:25.637Z,1.33
2022-10-01T07:37:58.554Z,1.48
2022-10-01T07:40:29.039Z,0.63
2022-10-01T07:42:59.834Z,1.08
2022-10-01T07:45:30.601Z,1.10
2022-10-01T07:48:03.226Z,0.63
2022-10-01T07:50:33.892Z,2.28
2022-10-01T07:53:06.974Z,1.20
2022-10-01T07:55:37.455Z,0.82
2022-10-01T07:58:08.489Z,0.45
2022-10-01T08:00:39.198Z,1.67
2022-10-01T08:03:12.297Z,0.65
2022-10-01T08:05:46.628Z,0.40
2022-10-01T08:08:19.667Z,0.60
2022-10-01T08:10:50.839Z,1.00
2022-10-01T08:13:25.045Z,0.65
2022-10-01T08:15:56.398Z,0.55
2022-10-01T08:18:27.184Z,1.60
2022-10-01T08:20:57.540Z,0.70
2022-10-01T08:23:30.374Z,0.80
2022-10-01T08:26:04.244Z,2.63
2022-10-01T08:28:34.778Z,0.40
2022-10-01T08:31:10.113Z,0.60
2022-10-01T08:33:41.465Z,0.40
2022-10-01T08:36:11.771Z,0.40
2022-10-01T08:38:49.044Z,0.40
2022-10-01T08:41:38.474Z,0.40
2022-10-01T08:44:10.457Z,0.38
2022-10-01T08:46:41.796Z,0.70
2022-10-01T08:49:21.153Z,0.88
2022-10-01T08:51:57.107Z,0.75
2022-10-01T08:54:37.807Z,0.68
2022-10-01T08:57:15.553Z,1.80
2022-10-01T08:59:47.980Z,0.70
2022-10-01T09:02:25.720Z,2.13
2022-10-01T09:05:02.389Z,0.30
2022-10-01T09:07:56.590Z,0.85
2022-10-01T09:10:46.928Z,0.30
2022-10-01T09:13:57.678Z,0.40
2022-10-01T09:16:34.393Z,0.40
2022-10-01T09:19:21.637Z,0.40
2022-10-01T09:21:59.945Z,0.38
2022-10-01T09:24:45.912Z,0.40
2022-10-01T09:27:22.137Z,0.40
2022-10-01T09:29:56.680Z,0.40
2022-10-01T09:32:30.500Z,0.50
2022-10-01T09:35:05.962Z,0.93
2022-10-01T09:37:45.154Z,0.30
2022-10-01T09:40:23.232Z,0.38
2022-10-01T09:42:56.223Z,0.38
2022-10-01T09:45:27.935Z,0.63
2022-10-01T09:48:07.871Z,1.10
2022-10-01T09:50:45.392Z,0.30
2022-10-01T09:53:23.438Z,0.50
2022-10-01T09:56:00.427Z,0.40
2022-10-01T09:58:34.775Z,0.40
2022-10-01T10:01:05.227Z,0.40
2022-10-01T10:03:36.139Z,0.50
2022-10-01T10:06:09.585Z,1.08
2022-10-01T10:08:42.359Z,0.47
2022-10-01T10:11:14.413Z,0.82
2022-10-01T10:13:55.004Z,0.50
2022-10-01T10:16:30.133Z,0.30
2022-10-01T10:19:04.017Z,0.50
2022-10-01T10:21:37.546Z,0.30
2022-10-01T10:24:21.571Z,0.85
2022-10-01T10:26:58.561Z,0.40
2022-10-01T10:29:34.084Z,0.30
2022-10-01T10:32:13.649Z,0.30
2022-10-01T10:34:47.175Z,0.30
2022-10-01T10:37:20.339Z,0.40
2022-10-01T10:39:54.050Z,0.30
2022-10-01T10:42:25.443Z,0.32
2022-10-01T10:45:02.630Z,0.30
2022-10-01T10:47:33.514Z,0.70
2022-10-01T10:50:08.137Z,0.40
2022-10-01T10:55:30.384Z,0.40
2022-10-01T10:58:14.359Z,0.30
2022-10-01T11:00:52.958Z,0.30
2022-10-01T11:03:27.415Z,0.50
2022-10-01T11:06:00.361Z,0.30
2022-10-01T11:08:31.854Z,0.60
2022-10-01T11:11:18.399Z,0.30
2022-10-01T11:14:05.033Z,0.40
2022-10-01T11:16:55.383Z,0.30
2022-10-01T11:19:42.740Z,0.63
2022-10-01T11:22:29.077Z,0.40
2022-10-01T11:25:22.885Z,0.50
2022-10-01T11:28:03.919Z,0.40
2022-10-01T11:30:44.362Z,0.30
2022-10-01T11:33:28.266Z,0.30
2022-10-01T11:36:04.717Z,0.32
2022-10-01T11:38:49.305Z,0.65
2022-10-01T11:41:32.081Z,0.40
2022-10-01T11:44:08.961Z,0.30
2022-10-01T11:46:54.397Z,0.50
2022-10-01T11:49:53.942Z,0.45
2022-10-01T11:52:41.634Z,1.13
2022-10-01T11:55:34.671Z,0.63
2022-10-01T11:58:27.052Z,0.40
2022-10-01T12:01:06.759Z,0.80
2022-10-01T12:03:48.943Z,0.40
2022-10-01T12:06:28.487Z,0.50
2022-10-01T12:09:08.838Z,0.30
2022-10-01T12:11:45.642Z,0.63
2022-10-01T12:14:23.187Z,0.70
2022-10-01T12:16:59.915Z,0.50
2022-10-01T12:19:35.364Z,0.52
2022-10-01T12:22:15.443Z,0.60
2022-10-01T12:24:47.683Z,0.40
2022-10-01T12:27:48.553Z,0.45
2022-10-01T12:30:22.780Z,0.40
2022-10-01T12:33:17.332Z,0.40
2022-10-01T12:36:03.342Z,0.40
2022-10-01T12:39:01.252Z,0.47
2022-10-01T12:41:48.257Z,1.15
2022-10-01T12:44:44.664Z,0.50
2022-10-01T12:47:38.210Z,0.40
2022-10-01T12:50:25.303Z,0.40
2022-10-01T12:53:18.364Z,0.40
2022-10-01T12:56:09.251Z,0.95
2022-10-01T12:59:03.189Z,0.30
2022-10-01T13:01:50.484Z,0.40
2022-10-01T13:05:02.463Z,0.40
2022-10-01T13:07:52.727Z,0.50
2022-10-01T13:10:43.156Z,0.77
2022-10-01T13:13:22.273Z,0.35
2022-10-01T13:16:01.351Z,1.33
2022-10-01T13:18:43.283Z,0.40
2022-10-01T13:21:24.262Z,0.40
2022-10-01T13:24:01.813Z,0.30
2022-10-01T13:26:38.126Z,0.40
2022-10-01T13:29:30.077Z,0.40
2022-10-01T13:32:02.780Z,0.75
2022-10-01T13:34:41.608Z,0.40
2022-10-01T13:37:18.739Z,0.60
2022-10-01T13:39:50.157Z,0.30
2022-10-01T13:42:26.228Z,0.47
2022-10-01T13:45:03.603Z,0.85
2022-10-01T13:47:35.179Z,0.32
2022-10-01T13:50:09.519Z,0.30
2022-10-01T13:52:39.798Z,0.43
2022-10-01T13:55:23.429Z,0.30
2022-10-01T13:58:04.932Z,0.38
2022-10-01T14:00:37.801Z,0.60
2022-10-01T14:03:29.733Z,0.40
2022-10-01T14:06:01.228Z,0.40
2022-10-01T14:08:36.677Z,0.40
2022-10-01T14:11:32.107Z,0.40
2022-10-01T14:16:59.644Z,0.57
2022-10-01T14:19:31.335Z,0.63
2022-10-01T14:22:19.836Z,0.50
2022-10-01T14:25:32.549Z,0.60
2022-10-01T14:28:17.487Z,0.40
2022-10-01T14:36:19.051Z,0.47
2022-10-01T14:38:49.431Z,0.70
2022-10-01T14:41:27.159Z,0.30
2022-10-01T14:43:57.304Z,0.40
2022-10-01T14:46:27.426Z,0.30
2022-10-01T14:49:03.351Z,0.40
2022-10-01T14:51:34.002Z,0.50
2022-10-01T14:54:04.334Z,0.30
2022-10-01T14:56:35.777Z,0.40
2022-10-01T14:59:08.857Z,0.47
2022-10-01T15:01:39.008Z,0.35
2022-10-01T15:04:24.488Z,0.40
2022-10-01T15:06:54.853Z,0.50
2022-10-01T15:09:25.016Z,0.70
2022-10-01T15:11:55.266Z,0.57
2022-10-01T15:14:28.096Z,0.40
2022-10-01T15:16:58.404Z,0.40
2022-10-01T15:19:31.540Z,0.38
2022-10-01T15:22:04.771Z,0.40
2022-10-01T15:24:42.904Z,0.40
2022-10-01T15:27:15.586Z,0.32
2022-10-01T15:29:46.684Z,0.30
2022-10-01T15:32:21.375Z,0.35
2022-10-01T15:37:31.520Z,0.75
2022-10-01T15:40:03.506Z,0.40
2022-10-01T15:42:37.633Z,0.40
2022-10-01T15:45:31.832Z,0.73
2022-10-01T15:48:02.117Z,0.43
2022-10-01T15:50:37.570Z,0.55
2022-10-01T15:53:17.250Z,0.30
2022-10-01T15:55:52.602Z,0.43
2022-10-01T15:58:27.184Z,0.40
2022-10-01T16:01:04.715Z,0.30
2022-10-01T16:03:38.959Z,0.30
2022-10-01T16:06:26.304Z,0.30
2022-10-01T16:09:06.271Z,0.70
2022-10-01T16:11:55.455Z,1.85
2022-10-01T16:14:39.524Z,0.50
2022-10-01T16:17:37.768Z,0.40
2022-10-01T16:20:46.612Z,0.63
2022-10-01T16:23:48.255Z,0.35
2022-10-01T16:26:42.512Z,0.60
2022-10-01T16:29:29.164Z,0.50
2022-10-01T16:32:01.747Z,0.30
2022-10-01T16:34:32.112Z,0.50
2022-10-01T16:37:02.237Z,0.40
2022-10-01T16:39:35.446Z,0.40
2022-10-01T16:42:23.232Z,0.30
2022-10-01T16:44:54.570Z,0.60
2022-10-01T16:47:24.819Z,0.40
2022-10-01T16:49:55.543Z,0.55
2022-10-01T16:52:25.800Z,0.50
2022-10-01T16:54:58.508Z,0.50
2022-10-01T16:57:28.778Z,0.65
2022-10-01T16:59:59.282Z,0.40
2022-10-01T17:02:30.166Z,0.40
2022-10-01T17:05:01.061Z,0.60
2022-10-01T17:07:31.241Z,0.50
2022-10-01T17:10:04.136Z,0.75
2022-10-01T17:12:34.520Z,0.50
2022-10-01T17:15:05.939Z,0.45
2022-10-01T17:17:36.384Z,0.30
2022-10-01T17:20:07.845Z,0.40
2022-10-01T17:22:39.136Z,0.40
2022-10-01T17:25:17.871Z,0.38
2022-10-01T17:27:49.488Z,0.30
2022-10-01T17:30:21.030Z,0.50
2022-10-01T17:32:51.428Z,0.30
2022-10-01T17:35:22.116Z,0.40
2022-10-01T17:37:52.430Z,0.40
2022-10-01T17:40:25.530Z,0.32
2022-10-01T17:42:55.925Z,0.32
2022-10-01T17:45:26.461Z,0.55
2022-10-01T17:47:56.715Z,0.88
2022-10-01T17:50:27.140Z,0.82
2022-10-01T17:52:58.876Z,0.50
2022-10-01T17:55:34.318Z,0.30
2022-10-01T17:58:06.988Z,0.63
2022-10-01T18:00:37.478Z,0.65
2022-10-01T18:03:07.953Z,0.40
2022-10-01T18:05:38.326Z,0.40
2022-10-01T18:08:08.864Z,0.40
2022-10-01T18:10:41.864Z,0.68
2022-10-01T18:13:12.301Z,0.43
2022-10-01T18:15:42.549Z,0.40
2022-10-01T18:21:08.087Z,0.35
2022-10-01T18:23:39.614Z,0.40
2022-10-01T18:26:14.219Z,0.30
2022-10-01T18:28:44.629Z,0.50
2022-10-01T18:31:21.840Z,0.40
2022-10-01T18:33:54.656Z,0.55
2022-10-01T18:36:29.961Z,0.70
2022-10-01T18:39:13.132Z,0.40
2022-10-01T18:41:46.388Z,0.63
2022-10-01T18:44:20.589Z,0.35
2022-10-01T18:47:07.394Z,1.95
2022-10-01T18:50:06.785Z,0.40
2022-10-01T18:52:51.320Z,1.33
2022-10-01T18:55:49.672Z,0.55
2022-10-01T18:58:45.435Z,1.05
2022-10-01T19:01:26.184Z,0.30
2022-10-01T19:04:24.849Z,0.68
2022-10-01T19:07:13.301Z,0.45
2022-10-01T19:09:54.385Z,0.30
2022-10-01T19:12:46.956Z,0.40
2022-10-01T19:15:31.990Z,0.47
2022-10-01T19:20:57.828Z,0.60
2022-10-01T19:23:55.954Z,0.55
2022-10-01T19:26:33.349Z,0.30
2022-10-01T19:29:20.002Z,0.38
2022-10-01T19:31:58.961Z,0.60
2022-10-01T19:34:35.105Z,0.47
2022-10-01T19:37:09.839Z,0.60
2022-10-01T19:42:20.949Z,0.77
2022-10-01T19:45:01.593Z,0.60
2022-10-01T19:47:44.960Z,0.40
2022-10-01T19:50:25.137Z,0.70
2022-10-01T19:52:59.453Z,0.70
2022-10-01T19:55:38.323Z,0.77
2022-10-01T19:58:20.344Z,0.40
2022-10-01T20:00:55.951Z,0.40
2022-10-01T20:03:38.840Z,1.10
2022-10-01T20:06:17.413Z,0.30
2022-10-01T20:08:52.851Z,0.40
2022-10-01T20:11:32.181Z,0.40
2022-10-01T20:14:34.465Z,0.57
2022-10-01T20:17:11.716Z,0.40
2022-10-01T20:19:53.596Z,0.40
2022-10-01T20:22:33.654Z,0.93
2022-10-01T20:25:16.267Z,0.40
2022-10-01T20:27:56.704Z,0.50
2022-10-01T20:30:26.887Z,0.40
2022-10-01T20:33:08.406Z,0.30
2022-10-01T20:35:53.366Z,0.30
2022-10-01T20:38:27.565Z,0.95
2022-10-01T20:41:01.066Z,1.00
2022-10-01T20:43:37.284Z,0.57
2022-10-01T20:46:16.496Z,0.40
2022-10-01T20:48:50.760Z,0.40
2022-10-01T20:51:46.133Z,0.52
2022-10-01T20:57:05.195Z,0.40
2022-10-01T20:59:40.671Z,0.43
2022-10-01T21:02:31.685Z,0.40
2022-10-01T21:05:09.041Z,0.30
2022-10-01T21:07:53.117Z,0.40
2022-10-01T21:10:31.513Z,0.40
2022-10-01T21:13:10.513Z,0.45
2022-10-01T21:15:57.096Z,0.52
2022-10-01T21:18:42.619Z,0.40
2022-10-01T21:21:26.537Z,0.40
2022-10-01T21:24:13.608Z,1.17
2022-10-01T21:26:59.130Z,0.30
2022-10-01T21:29:51.111Z,0.40
2022-10-01T21:32:36.547Z,0.60
2022-10-01T21:35:24.431Z,0.38
2022-10-01T21:38:05.561Z,0.40
2022-10-01T21:40:52.055Z,1.10
2022-10-01T21:43:36.300Z,0.40
2022-10-01T21:46:16.006Z,1.40
2022-10-01T21:48:56.562Z,0.40
2022-10-01T21:51:40.499Z,1.02
2022-10-01T21:54:49.600Z,2.10
2022-10-01T21:57:43.349Z,0.50
2022-10-01T22:00:22.480Z,0.40
2022-10-01T22:03:09.258Z,0.30
2022-10-01T22:05:50.135Z,0.65
2022-10-01T22:08:43.885Z,0.40
2022-10-01T22:11:20.584Z,0.50
2022-10-01T22:13:56.958Z,0.40
2022-10-01T22:16:34.175Z,0.63
2022-10-01T22:19:11.334Z,0.55
2022-10-01T22:21:47.125Z,1.25
2022-10-01T22:24:21.129Z,2.05
2022-10-01T22:27:00.983Z,1.33
2022-10-01T22:29:35.624Z,0.77
2022-10-01T22:34:41.921Z,1.00
2022-10-01T22:37:19.951Z,0.60
2022-10-01T22:39:57.806Z,0.30
2022-10-01T22:42:33.365Z,0.30
2022-10-01T22:45:15.839Z,0.70
2022-10-01T22:48:01.568Z,0.70
2022-10-01T22:50:56.137Z,0.47
2022-10-01T22:53:41.809Z,0.87
2022-10-01T22:56:17.211Z,0.40
2022-10-01T22:59:06.574Z,0.45
2022-10-01T23:01:48.550Z,0.73
2022-10-01T23:04:38.872Z,0.40
2022-10-01T23:07:19.016Z,0.77
2022-10-01T23:09:55.574Z,0.60
2022-10-01T23:12:36.689Z,0.30
2022-10-01T23:15:20.358Z,1.10
2022-10-01T23:18:01.841Z,1.75
2022-10-01T23:20:36.283Z,0.82
2022-10-01T23:23:29.792Z,0.82
2022-10-01T23:26:24.579Z,0.80
2022-10-01T23:29:25.530Z,0.80
2022-10-01T23:32:05.844Z,0.60
2022-10-01T23:34:49.411Z,0.75
2022-10-01T23:37:45.314Z,0.55
2022-10-01T23:40:20.728Z,0.95
2022-10-01T23:42:59.702Z,0.77
2022-10-01T23:45:35.823Z,0.70
2022-10-01T23:48:13.569Z,0.65
2022-10-01T23:50:57.628Z,0.43
2022-10-01T23:53:35.851Z,0.50
2022-10-01T23:56:23.303Z,0.40
2022-10-01T23:59:03.564Z,0.65
